Santa Lucia — A8IP5 — position and weather

sailwx.info

Track history (hours):
 
Tides and Currents Weather Stations Pressure Air Temp Water Temp Dewpoint Dewpoint Depression Visibility Wind Speed Wind Dir Waves Ship Positions

Santa Lucia

Last reported at 2016-Feb-11 13:24 UTC. Time now 2016-Feb-11 15:06 UTC.
Position N 39°48' W 075°26'.

Length 143 m; beam 22 m.

Type: Ship. MMSI: 636091017.

Date/timePositionNaut miles runAvg speedWind from/ knotsBaromVisibWave heightAir tempDewpointWater temp
2016-Feb-11 13:24N 39°48' W 075°26'910.6
2016-Feb-11 12:33N 39°51' W 075°15'7 6.7
2016-Feb-11 11:33N 39°55' W 075°08'0 0.0
2016-Feb-11 10:30N 39°55' W 075°08'0 0.0
2016-Feb-11 09:32N 39°55' W 075°08'0 0.0
2016-Feb-11 08:31N 39°55' W 075°08'0 0.0
2016-Feb-11 07:33N 39°55' W 075°08'0 0.0
2016-Feb-11 06:28N 39°55' W 075°08'0 0.0
2016-Feb-11 05:26N 39°55' W 075°08'0 0.0
2016-Feb-11 04:27N 39°55' W 075°08'0 0.0
2016-Feb-11 03:26N 39°55' W 075°08'0 0.0
2016-Feb-11 02:30N 39°55' W 075°08'0 0.0
2016-Feb-11 01:33N 39°55' W 075°08'0 0.0
2016-Feb-11 00:31N 39°55' W 075°08'0 0.0
2016-Feb-10 23:31N 39°55' W 075°08'0 0.0
2016-Feb-10 22:27N 39°55' W 075°08'0 0.0
2016-Feb-10 21:33N 39°55' W 075°08'0 0.0
2016-Feb-10 20:33N 39°55' W 075°08'0 0.0
2016-Feb-10 19:33N 39°55' W 075°08'0 0.0
2016-Feb-10 18:33N 39°55' W 075°08'0 0.0
2016-Feb-10 17:33N 39°55' W 075°08'0 0.0
2016-Feb-10 16:33N 39°55' W 075°08'0 0.0
2016-Feb-10 15:33N 39°55' W 075°08'0 0.0
2016-Feb-10 14:33N 39°55' W 075°08'0 0.0
2016-Feb-10 13:33N 39°55' W 075°08'3 2.7
2016-Feb-10 12:33N 39°53' W 075°10'9 9.4
2016-Feb-10 11:33N 39°50' W 075°22'8 8.0
2016-Feb-10 10:33N 39°45' W 075°30'1010.2
2016-Feb-10 09:34N 39°35' W 075°34'1313.0
2016-Feb-10 08:33N 39°23' W 075°28'1414.0
2016-Feb-10 07:33N 39°12' W 075°17'1414.2
2016-Feb-10 06:33N 38°59' W 075°08'1212.0
2016-Feb-10 05:34N 38°48' W 075°03'8 8.0
2016-Feb-10 04:34N 38°43' W 074°55'10 9.7
2016-Feb-10 03:34N 38°35' W 074°47'  
Track history (hours):
 
Tides and Currents Weather Stations Pressure Air Temp Water Temp Dewpoint Dewpoint Depression Visibility Wind Speed Wind Dir Waves Ship Positions

Santa Lucia

Last reported at 2016-Feb-11 13:24 UTC. Time now 2016-Feb-11 15:06 UTC.
Position N 39°48' W 075°26'.

Length 143 m; beam 22 m.

Type: Ship. MMSI: 636091017.

Date/timePositionNaut miles runAvg speedWind from/ knotsBaromVisibWave heightAir tempDewpointWater temp
2016-Feb-11 13:24N 39°48' W 075°26'910.6
2016-Feb-11 12:33N 39°51' W 075°15'7 6.7
2016-Feb-11 11:33N 39°55' W 075°08'0 0.0
2016-Feb-11 10:30N 39°55' W 075°08'0 0.0
2016-Feb-11 09:32N 39°55' W 075°08'0 0.0
2016-Feb-11 08:31N 39°55' W 075°08'0 0.0
2016-Feb-11 07:33N 39°55' W 075°08'0 0.0
2016-Feb-11 06:28N 39°55' W 075°08'0 0.0
2016-Feb-11 05:26N 39°55' W 075°08'0 0.0
2016-Feb-11 04:27N 39°55' W 075°08'0 0.0
2016-Feb-11 03:26N 39°55' W 075°08'0 0.0
2016-Feb-11 02:30N 39°55' W 075°08'0 0.0
2016-Feb-11 01:33N 39°55' W 075°08'0 0.0
2016-Feb-11 00:31N 39°55' W 075°08'0 0.0
2016-Feb-10 23:31N 39°55' W 075°08'0 0.0
2016-Feb-10 22:27N 39°55' W 075°08'0 0.0
2016-Feb-10 21:33N 39°55' W 075°08'0 0.0
2016-Feb-10 20:33N 39°55' W 075°08'0 0.0
2016-Feb-10 19:33N 39°55' W 075°08'0 0.0
2016-Feb-10 18:33N 39°55' W 075°08'0 0.0
2016-Feb-10 17:33N 39°55' W 075°08'0 0.0
2016-Feb-10 16:33N 39°55' W 075°08'0 0.0
2016-Feb-10 15:33N 39°55' W 075°08'0 0.0
2016-Feb-10 14:33N 39°55' W 075°08'0 0.0
2016-Feb-10 13:33N 39°55' W 075°08'3 2.7
2016-Feb-10 12:33N 39°53' W 075°10'9 9.4
2016-Feb-10 11:33N 39°50' W 075°22'8 8.0
2016-Feb-10 10:33N 39°45' W 075°30'1010.2
2016-Feb-10 09:34N 39°35' W 075°34'1313.0
2016-Feb-10 08:33N 39°23' W 075°28'1414.0
2016-Feb-10 07:33N 39°12' W 075°17'1414.2
2016-Feb-10 06:33N 38°59' W 075°08'1212.0
2016-Feb-10 05:34N 38°48' W 075°03'8 8.0
2016-Feb-10 04:34N 38°43' W 074°55'10 9.7
2016-Feb-10 03:34N 38°35' W 074°47'  

Dump ship's entire track history